createdAt,value
2022-10-12T00:00:00.159Z,102290
2022-10-12T00:01:00.175Z,102290
2022-10-12T00:02:00.334Z,102290
2022-10-12T00:03:00.159Z,102290
2022-10-12T00:04:00.149Z,102290
2022-10-12T00:05:00.158Z,102290
2022-10-12T00:06:00.132Z,102290
2022-10-12T00:07:00.146Z,102290
2022-10-12T00:08:00.144Z,102290
2022-10-12T00:09:00.159Z,102290
2022-10-12T00:10:00.391Z,102290
2022-10-12T00:11:00.581Z,102290
2022-10-12T00:12:00.176Z,102290
2022-10-12T00:13:00.150Z,102290
2022-10-12T00:14:00.173Z,102290
2022-10-12T00:15:00.172Z,102290
2022-10-12T00:16:02.496Z,102290
2022-10-12T00:17:00.150Z,102290
2022-10-12T00:18:00.138Z,102290
2022-10-12T00:19:00.247Z,102290
2022-10-12T00:20:00.157Z,102290
2022-10-12T00:21:01.035Z,102290
2022-10-12T00:22:00.382Z,102290
2022-10-12T00:23:00.159Z,102290
2022-10-12T00:24:00.686Z,102290
2022-10-12T00:25:00.152Z,102280
2022-10-12T00:26:01.361Z,102280
2022-10-12T00:27:00.154Z,102290
2022-10-12T00:28:00.152Z,102290
2022-10-12T00:29:00.867Z,102290
2022-10-12T00:30:00.338Z,102290
2022-10-12T00:31:00.484Z,102290
2022-10-12T00:32:00.153Z,102290
2022-10-12T00:33:00.178Z,102290
2022-10-12T00:34:01.010Z,102290
2022-10-12T00:35:00.152Z,102290
2022-10-12T00:36:09.301Z,102290
2022-10-12T00:37:00.175Z,102280
2022-10-12T00:38:00.168Z,102280
2022-10-12T00:39:00.613Z,102280
2022-10-12T00:40:00.167Z,102280
2022-10-12T00:41:00.153Z,102290
2022-10-12T00:42:00.148Z,102290
2022-10-12T00:43:00.167Z,102290
2022-10-12T00:44:00.163Z,102290
2022-10-12T00:45:00.155Z,102290
2022-10-12T00:46:02.396Z,102290
2022-10-12T00:47:01.915Z,102290
2022-10-12T00:48:00.192Z,102290
2022-10-12T00:49:10.094Z,102290
2022-10-12T00:50:10.097Z,102290
2022-10-12T00:51:00.650Z,102300
2022-10-12T00:52:03.872Z,102300
2022-10-12T00:53:07.912Z,102290
2022-10-12T00:54:03.211Z,102290
2022-10-12T00:55:00.512Z,102290
2022-10-12T00:56:01.761Z,102290
2022-10-12T00:57:02.058Z,102290
2022-10-12T00:58:00.384Z,102290
2022-10-12T00:59:01.952Z,102290
2022-10-12T01:00:03.465Z,102290
2022-10-12T01:01:01.583Z,102290
2022-10-12T01:02:00.222Z,102290
2022-10-12T01:03:00.645Z,102290
2022-10-12T01:04:01.012Z,102290
2022-10-12T01:05:00.920Z,102290
2022-10-12T01:06:00.258Z,102290
2022-10-12T01:07:00.180Z,102290
2022-10-12T01:08:00.177Z,102290
2022-10-12T01:09:00.640Z,102290
2022-10-12T01:10:00.706Z,102290
2022-10-12T01:11:00.167Z,102290
2022-10-12T01:12:02.992Z,102290
2022-10-12T01:13:00.460Z,102290
2022-10-12T01:14:00.366Z,102290
2022-10-12T01:15:00.331Z,102280
2022-10-12T01:16:10.118Z,102280
2022-10-12T01:17:00.160Z,102280
2022-10-12T01:18:03.540Z,102280
2022-10-12T01:19:10.101Z,102280
2022-10-12T01:20:10.105Z,102280
2022-10-12T01:21:03.941Z,102280
2022-10-12T01:22:02.204Z,102280
2022-10-12T01:23:10.090Z,102280
2022-10-12T01:24:10.106Z,102280
2022-10-12T01:25:07.592Z,102270
2022-10-12T01:26:10.115Z,102270
2022-10-12T01:27:10.102Z,102270
2022-10-12T01:28:10.150Z,102270
2022-10-12T01:29:10.108Z,102270
2022-10-12T01:30:05.049Z,102270
2022-10-12T01:31:07.931Z,102260
2022-10-12T01:32:10.103Z,102260
2022-10-12T01:33:03.417Z,102260
2022-10-12T01:34:08.602Z,102260
2022-10-12T01:35:04.307Z,102260
2022-10-12T01:36:05.958Z,102260
2022-10-12T01:37:04.093Z,102260
2022-10-12T01:38:10.091Z,102260
2022-10-12T01:39:06.360Z,102260
2022-10-12T01:40:02.521Z,102260
2022-10-12T01:41:05.737Z,102250
2022-10-12T01:42:05.180Z,102250
2022-10-12T01:43:00.685Z,102250
2022-10-12T01:44:00.277Z,102250
2022-10-12T01:45:01.158Z,102250
2022-10-12T01:46:10.089Z,102250
2022-10-12T01:47:00.160Z,102250
2022-10-12T01:48:00.570Z,102250
2022-10-12T01:49:00.821Z,102240
2022-10-12T01:50:01.651Z,102240
2022-10-12T01:51:01.251Z,102240
2022-10-12T01:52:00.138Z,102240
2022-10-12T01:53:10.089Z,102240
2022-10-12T01:54:08.411Z,102240
2022-10-12T01:55:00.139Z,102240
2022-10-12T01:56:07.859Z,102240
2022-10-12T01:57:00.132Z,102240
2022-10-12T01:58:10.089Z,102240
2022-10-12T01:59:10.088Z,102240
2022-10-12T02:00:03.405Z,102240
2022-10-12T02:01:10.179Z,102240
2022-10-12T02:02:05.821Z,102240
2022-10-12T02:03:10.091Z,102240
2022-10-12T02:04:10.095Z,102240
2022-10-12T02:05:03.395Z,102230
2022-10-12T02:06:02.525Z,102230
2022-10-12T02:07:03.721Z,102230
2022-10-12T02:08:03.551Z,102230
2022-10-12T02:09:04.983Z,102230
2022-10-12T02:10:01.303Z,102230
2022-10-12T02:11:10.087Z,102230
2022-10-12T02:12:05.807Z,102230
2022-10-12T02:13:01.823Z,102230
2022-10-12T02:14:01.150Z,102230
2022-10-12T02:15:03.117Z,102230
2022-10-12T02:16:02.207Z,102230
2022-10-12T02:17:02.564Z,102230
2022-10-12T02:18:01.874Z,102230
2022-10-12T02:19:01.986Z,102230
2022-10-12T02:20:02.541Z,102230
2022-10-12T02:21:01.608Z,102230
2022-10-12T02:22:01.358Z,102230
2022-10-12T02:23:00.763Z,102230
2022-10-12T02:24:01.672Z,102230
2022-10-12T02:25:03.098Z,102220
2022-10-12T02:26:00.771Z,102220
2022-10-12T02:27:00.334Z,102220
2022-10-12T02:28:06.675Z,102220
2022-10-12T02:29:02.028Z,102210
2022-10-12T02:30:00.502Z,102210
2022-10-12T02:31:03.411Z,102210
2022-10-12T02:32:01.158Z,102210
2022-10-12T02:33:06.453Z,102220
2022-10-12T02:34:05.025Z,102220
2022-10-12T02:35:03.491Z,102220
2022-10-12T02:36:06.810Z,102220
2022-10-12T02:37:01.142Z,102220
2022-10-12T02:38:05.201Z,102220
2022-10-12T02:39:04.262Z,102220
2022-10-12T02:40:05.585Z,102220
2022-10-12T02:41:05.317Z,102210
2022-10-12T02:42:04.916Z,102210
2022-10-12T02:43:11.441Z,102210
2022-10-12T02:44:01.207Z,102210
2022-10-12T02:45:02.931Z,102210
2022-10-12T02:46:00.690Z,102210
2022-10-12T02:47:01.248Z,102210
2022-10-12T02:48:00.558Z,102210
2022-10-12T02:49:01.297Z,102210
2022-10-12T02:50:01.203Z,102210
2022-10-12T02:51:01.026Z,102210
2022-10-12T02:52:01.064Z,102210
2022-10-12T02:53:02.119Z,102210
2022-10-12T02:54:00.765Z,102210
2022-10-12T02:55:00.175Z,102220
2022-10-12T02:56:02.828Z,102220
2022-10-12T02:57:00.148Z,102210
2022-10-12T02:58:00.175Z,102210
2022-10-12T02:59:00.185Z,102210
2022-10-12T03:00:00.187Z,102210
2022-10-12T03:01:00.204Z,102210
2022-10-12T03:02:00.159Z,102210
2022-10-12T03:03:00.150Z,102210
2022-10-12T03:04:00.143Z,102210
2022-10-12T03:05:00.155Z,102200
2022-10-12T03:06:00.223Z,102200
2022-10-12T03:07:00.155Z,102200
2022-10-12T03:08:00.189Z,102200
2022-10-12T03:09:00.396Z,102200
2022-10-12T03:10:00.178Z,102200
2022-10-12T03:11:01.078Z,102200
2022-10-12T03:12:00.150Z,102200
2022-10-12T03:13:00.164Z,102190
2022-10-12T03:14:00.178Z,102190
2022-10-12T03:15:00.179Z,102190
2022-10-12T03:16:01.179Z,102190
2022-10-12T03:17:00.160Z,102190
2022-10-12T03:18:00.181Z,102190
2022-10-12T03:19:00.159Z,102200
2022-10-12T03:20:00.180Z,102200
2022-10-12T03:21:00.245Z,102190
2022-10-12T03:22:00.155Z,102190
2022-10-12T03:23:00.191Z,102190
2022-10-12T03:24:00.164Z,102190
2022-10-12T03:25:00.195Z,102190
2022-10-12T03:26:00.175Z,102190
2022-10-12T03:27:00.185Z,102190
2022-10-12T03:28:00.173Z,102190
2022-10-12T03:29:00.180Z,102190
2022-10-12T03:30:00.173Z,102190
2022-10-12T03:31:00.158Z,102200
2022-10-12T03:32:00.160Z,102200
2022-10-12T03:33:00.160Z,102200
2022-10-12T03:34:00.177Z,102200
2022-10-12T03:35:00.162Z,102200
2022-10-12T03:36:00.173Z,102200
2022-10-12T03:37:00.157Z,102190
2022-10-12T03:38:00.171Z,102190
2022-10-12T03:39:00.177Z,102190
2022-10-12T03:40:00.196Z,102190
2022-10-12T03:41:05.702Z,102190
2022-10-12T03:42:00.194Z,102190
2022-10-12T03:43:00.204Z,102190
2022-10-12T03:44:00.225Z,102190
2022-10-12T03:45:00.184Z,102190
2022-10-12T03:46:00.284Z,102190
2022-10-12T03:47:00.166Z,102190
2022-10-12T03:48:04.707Z,102190
2022-10-12T03:49:00.175Z,102190
2022-10-12T03:50:00.160Z,102190
2022-10-12T03:51:00.178Z,102190
2022-10-12T03:52:00.167Z,102190
2022-10-12T03:53:00.996Z,102190
2022-10-12T03:54:00.165Z,102190
2022-10-12T03:55:00.189Z,102190
2022-10-12T03:56:00.169Z,102190
2022-10-12T03:57:00.212Z,102190
2022-10-12T03:58:00.245Z,102190
2022-10-12T03:59:00.175Z,102190
2022-10-12T04:00:00.184Z,102190
2022-10-12T04:01:00.288Z,102190
2022-10-12T04:02:00.174Z,102190
2022-10-12T04:03:00.182Z,102190
2022-10-12T04:04:00.178Z,102190
2022-10-12T04:05:00.179Z,102190
2022-10-12T04:06:00.178Z,102190
2022-10-12T04:07:00.140Z,102180
2022-10-12T04:08:00.145Z,102180
2022-10-12T04:09:00.149Z,102180
2022-10-12T04:10:00.486Z,102180
2022-10-12T04:11:00.149Z,102180
2022-10-12T04:12:00.491Z,102180
2022-10-12T04:13:00.149Z,102180
2022-10-12T04:14:00.234Z,102180
2022-10-12T04:15:00.155Z,102180
2022-10-12T04:16:01.511Z,102180
2022-10-12T04:17:00.164Z,102180
2022-10-12T04:18:00.152Z,102180
2022-10-12T04:19:00.147Z,102180
2022-10-12T04:20:00.149Z,102180
2022-10-12T04:21:00.649Z,102180
2022-10-12T04:22:00.152Z,102180
2022-10-12T04:23:00.174Z,102180
2022-10-12T04:24:00.152Z,102180
2022-10-12T04:25:00.164Z,102180
2022-10-12T04:26:00.154Z,102180
2022-10-12T04:27:00.163Z,102180
2022-10-12T04:28:00.184Z,102180
2022-10-12T04:29:00.155Z,102170
2022-10-12T04:30:00.183Z,102170
2022-10-12T04:31:00.164Z,102170
2022-10-12T04:32:00.167Z,102170
2022-10-12T04:33:00.154Z,102170
2022-10-12T04:34:00.149Z,102170
2022-10-12T04:35:00.164Z,102170
2022-10-12T04:36:00.150Z,102170
2022-10-12T04:37:00.151Z,102170
2022-10-12T04:38:00.160Z,102170
2022-10-12T04:39:01.332Z,102170
2022-10-12T04:40:00.177Z,102170
2022-10-12T04:41:00.222Z,102170
2022-10-12T04:42:00.158Z,102170
2022-10-12T04:43:00.160Z,102170
2022-10-12T04:44:00.276Z,102170
2022-10-12T04:45:00.172Z,102170
2022-10-12T04:46:00.177Z,102170
2022-10-12T04:47:01.654Z,102170
2022-10-12T04:48:00.153Z,102170
2022-10-12T04:49:00.156Z,102180
2022-10-12T04:50:00.167Z,102180
2022-10-12T04:51:00.207Z,102180
2022-10-12T04:52:00.150Z,102180
2022-10-12T04:53:00.161Z,102180
2022-10-12T04:54:00.152Z,102180
2022-10-12T04:55:00.163Z,102180
2022-10-12T04:56:01.841Z,102180
2022-10-12T04:57:00.172Z,102180
2022-10-12T04:58:00.155Z,102180
2022-10-12T04:59:00.158Z,102180
2022-10-12T05:00:00.164Z,102180
2022-10-12T05:01:00.179Z,102180
2022-10-12T05:02:00.245Z,102180
2022-10-12T05:03:00.207Z,102180
2022-10-12T05:04:00.159Z,102180
2022-10-12T05:05:00.196Z,102180
2022-10-12T05:06:00.262Z,102180
2022-10-12T05:07:00.160Z,102190
2022-10-12T05:08:00.234Z,102190
2022-10-12T05:09:00.164Z,102180
2022-10-12T05:10:00.245Z,102180
2022-10-12T05:11:00.219Z,102180
2022-10-12T05:12:00.149Z,102180
2022-10-12T05:13:00.185Z,102180
2022-10-12T05:14:00.162Z,102180
2022-10-12T05:15:00.160Z,102180
2022-10-12T05:16:00.254Z,102180
2022-10-12T05:17:00.151Z,102170
2022-10-12T05:18:00.175Z,102170
2022-10-12T05:19:00.163Z,102170
2022-10-12T05:20:00.158Z,102170
2022-10-12T05:21:00.149Z,102170
2022-10-12T05:22:00.298Z,102170
2022-10-12T05:23:00.251Z,102170
2022-10-12T05:24:00.149Z,102170
2022-10-12T05:25:00.330Z,102170
2022-10-12T05:26:00.221Z,102170
2022-10-12T05:27:00.144Z,102170
2022-10-12T05:28:00.151Z,102170
2022-10-12T05:29:00.245Z,102170
2022-10-12T05:30:00.170Z,102170
2022-10-12T05:31:00.157Z,102170
2022-10-12T05:32:00.167Z,102170
2022-10-12T05:33:00.152Z,102170
2022-10-12T05:34:00.147Z,102170
2022-10-12T05:35:00.173Z,102160
2022-10-12T05:36:00.297Z,102160
2022-10-12T05:37:00.158Z,102160
2022-10-12T05:38:00.151Z,102160
2022-10-12T05:39:00.153Z,102160
2022-10-12T05:40:00.187Z,102160
2022-10-12T05:41:00.918Z,102160
2022-10-12T05:42:00.156Z,102160
2022-10-12T05:43:00.161Z,102160
2022-10-12T05:44:00.151Z,102160
2022-10-12T05:45:00.381Z,102160
2022-10-12T05:46:00.154Z,102160
2022-10-12T05:47:00.153Z,102160
2022-10-12T05:48:00.140Z,102160
2022-10-12T05:49:00.144Z,102160
2022-10-12T05:50:00.294Z,102160
2022-10-12T05:51:00.154Z,102160
2022-10-12T05:52:00.259Z,102160
2022-10-12T05:53:00.154Z,102160
2022-10-12T05:54:00.155Z,102160
2022-10-12T05:55:00.198Z,102160
2022-10-12T05:56:00.319Z,102160
2022-10-12T05:57:00.181Z,102160
2022-10-12T05:58:00.182Z,102160
2022-10-12T05:59:00.158Z,102160
2022-10-12T06:00:00.152Z,102160
2022-10-12T06:01:04.540Z,102160
2022-10-12T06:02:00.248Z,102160
2022-10-12T06:03:00.151Z,102160
2022-10-12T06:04:00.148Z,102160
2022-10-12T06:05:00.265Z,102160
2022-10-12T06:06:00.163Z,102160
2022-10-12T06:07:00.146Z,102160
2022-10-12T06:08:00.142Z,102160
2022-10-12T06:09:00.152Z,102160
2022-10-12T06:10:00.170Z,102160
2022-10-12T06:11:00.270Z,102170
2022-10-12T06:12:00.185Z,102170
2022-10-12T06:13:00.587Z,102170
2022-10-12T06:14:00.146Z,102170
2022-10-12T06:15:00.162Z,102170
2022-10-12T06:16:00.155Z,102170
2022-10-12T06:17:00.200Z,102170
2022-10-12T06:18:00.151Z,102170
2022-10-12T06:19:00.203Z,102170
2022-10-12T06:20:00.155Z,102170
2022-10-12T06:21:32.360Z,102160
2022-10-12T06:22:00.199Z,102160
2022-10-12T06:23:00.189Z,102160
2022-10-12T06:24:00.166Z,102160
2022-10-12T06:25:00.151Z,102160
2022-10-12T06:26:00.157Z,102160
2022-10-12T06:27:00.183Z,102160
2022-10-12T06:28:00.155Z,102160
2022-10-12T06:29:00.154Z,102160
2022-10-12T06:30:00.166Z,102160
2022-10-12T06:31:00.186Z,102160
2022-10-12T06:32:00.166Z,102160
2022-10-12T06:33:00.158Z,102160
2022-10-12T06:34:00.163Z,102160
2022-10-12T06:35:00.161Z,102160
2022-10-12T06:36:00.162Z,102160
2022-10-12T06:37:01.964Z,102160
2022-10-12T06:38:00.421Z,102160
2022-10-12T06:39:00.299Z,102160
2022-10-12T06:40:00.311Z,102160
2022-10-12T06:41:00.155Z,102150
2022-10-12T06:42:00.156Z,102150
2022-10-12T06:43:00.140Z,102150
2022-10-12T06:44:00.166Z,102150
2022-10-12T06:45:00.154Z,102150
2022-10-12T06:46:00.239Z,102150
2022-10-12T06:47:00.144Z,102150
2022-10-12T06:48:00.178Z,102150
2022-10-12T06:49:00.146Z,102150
2022-10-12T06:50:00.149Z,102150
2022-10-12T06:51:00.161Z,102150
2022-10-12T06:52:00.179Z,102150
2022-10-12T06:53:00.153Z,102160
2022-10-12T06:54:00.167Z,102160
2022-10-12T06:55:00.559Z,102160
2022-10-12T06:56:08.091Z,102160
2022-10-12T06:57:00.142Z,102160
2022-10-12T06:58:00.156Z,102160
2022-10-12T06:59:00.162Z,102170
2022-10-12T07:00:00.159Z,102170
2022-10-12T07:01:00.778Z,102160
2022-10-12T07:02:00.219Z,102160
2022-10-12T07:03:00.151Z,102160
2022-10-12T07:04:00.981Z,102160
2022-10-12T07:05:00.361Z,102160
2022-10-12T07:06:07.819Z,102160
2022-10-12T07:07:00.154Z,102160
2022-10-12T07:08:00.162Z,102160
2022-10-12T07:09:00.154Z,102160
2022-10-12T07:10:00.259Z,102160
2022-10-12T07:11:01.917Z,102160
2022-10-12T07:12:00.141Z,102160
2022-10-12T07:13:00.141Z,102160
2022-10-12T07:14:00.163Z,102160
2022-10-12T07:15:00.152Z,102150
2022-10-12T07:16:00.382Z,102150
2022-10-12T07:17:00.168Z,102150
2022-10-12T07:18:00.158Z,102150
2022-10-12T07:19:00.159Z,102150
2022-10-12T07:20:00.166Z,102150
2022-10-12T07:21:00.193Z,102150
2022-10-12T07:22:00.523Z,102150
2022-10-12T07:23:00.154Z,102150
2022-10-12T07:24:00.165Z,102150
2022-10-12T07:25:00.316Z,102150
2022-10-12T07:26:00.148Z,102150
2022-10-12T07:27:00.516Z,102150
2022-10-12T07:28:00.185Z,102150
2022-10-12T07:29:00.154Z,102150
2022-10-12T07:30:00.343Z,102150
2022-10-12T07:31:01.214Z,102150
2022-10-12T07:32:00.161Z,102150
2022-10-12T07:33:00.149Z,102150
2022-10-12T07:34:00.146Z,102150
2022-10-12T07:35:00.161Z,102150
2022-10-12T07:36:13.867Z,102150
2022-10-12T07:37:00.243Z,102140
2022-10-12T07:38:00.145Z,102140
2022-10-12T07:39:00.145Z,102140
2022-10-12T07:40:00.150Z,102140
2022-10-12T07:41:01.055Z,102140
2022-10-12T07:42:00.217Z,102140
2022-10-12T07:43:15.304Z,102140
2022-10-12T07:44:00.149Z,102140
2022-10-12T07:45:00.150Z,102140
2022-10-12T07:46:00.153Z,102140
2022-10-12T07:47:00.207Z,102140
2022-10-12T07:48:00.152Z,102140
2022-10-12T07:49:00.149Z,102140
2022-10-12T07:50:00.146Z,102140
2022-10-12T07:51:02.468Z,102140
2022-10-12T07:52:00.150Z,102140
2022-10-12T07:53:00.153Z,102150
2022-10-12T07:54:00.173Z,102150
2022-10-12T07:55:00.177Z,102150
2022-10-12T07:56:02.081Z,102150
2022-10-12T07:57:00.167Z,102150
2022-10-12T07:58:00.545Z,102150
2022-10-12T07:59:00.312Z,102150
2022-10-12T08:00:00.196Z,102150
2022-10-12T08:01:04.428Z,102150
2022-10-12T08:02:00.241Z,102150
2022-10-12T08:03:00.151Z,102160
2022-10-12T08:04:02.028Z,102160
2022-10-12T08:05:00.156Z,102160
2022-10-12T08:06:06.552Z,102160
2022-10-12T08:07:00.187Z,102160
2022-10-12T08:08:00.168Z,102160
2022-10-12T08:09:00.652Z,102160
2022-10-12T08:10:00.151Z,102160
2022-10-12T08:11:00.438Z,102160
2022-10-12T08:12:00.209Z,102160
2022-10-12T08:13:00.263Z,102160
2022-10-12T08:14:00.146Z,102160
2022-10-12T08:15:00.191Z,102160
2022-10-12T08:16:01.115Z,102160
2022-10-12T08:17:00.164Z,102150
2022-10-12T08:18:00.155Z,102150
2022-10-12T08:19:00.144Z,102160
2022-10-12T08:20:00.151Z,102160
2022-10-12T08:21:02.584Z,102160
2022-10-12T08:22:00.173Z,102160
2022-10-12T08:23:00.170Z,102160
2022-10-12T08:24:00.186Z,102160
2022-10-12T08:25:00.157Z,102160
2022-10-12T08:26:00.516Z,102160
2022-10-12T08:27:01.616Z,102150
2022-10-12T08:28:00.164Z,102150
2022-10-12T08:29:00.728Z,102150
2022-10-12T08:30:00.157Z,102150
2022-10-12T08:31:04.271Z,102160
2022-10-12T08:32:00.158Z,102160
2022-10-12T08:33:00.146Z,102160
2022-10-12T08:34:00.157Z,102160
2022-10-12T08:35:00.153Z,102160
2022-10-12T08:36:01.342Z,102160
2022-10-12T08:37:00.148Z,102160
2022-10-12T08:38:00.149Z,102160
2022-10-12T08:39:00.195Z,102160
2022-10-12T08:40:03.350Z,102160
2022-10-12T08:41:10.168Z,102150
2022-10-12T08:42:07.345Z,102150
2022-10-12T08:43:00.129Z,102150
2022-10-12T08:44:06.313Z,102150
2022-10-12T08:45:05.264Z,102150
2022-10-12T08:46:01.116Z,102150
2022-10-12T08:47:08.859Z,102150
2022-10-12T08:48:07.696Z,102150
2022-10-12T08:49:01.788Z,102150
2022-10-12T08:50:01.087Z,102150
2022-10-12T08:51:02.168Z,102150
2022-10-12T08:52:02.630Z,102150
2022-10-12T08:53:10.083Z,102140
2022-10-12T08:54:03.695Z,102140
2022-10-12T08:55:05.802Z,102150
2022-10-12T08:56:00.189Z,102150
2022-10-12T08:57:00.159Z,102150
2022-10-12T08:58:00.579Z,102150
2022-10-12T08:59:00.480Z,102150
2022-10-12T09:00:00.150Z,102150
2022-10-12T09:01:12.839Z,102150
2022-10-12T09:02:10.163Z,102150
2022-10-12T09:03:00.136Z,102140
2022-10-12T09:04:10.096Z,102140
2022-10-12T09:05:02.477Z,102150
2022-10-12T09:06:10.086Z,102150
2022-10-12T09:07:05.171Z,102150
2022-10-12T09:08:02.847Z,102150
2022-10-12T09:09:10.090Z,102150
2022-10-12T09:10:10.094Z,102150
2022-10-12T09:11:08.837Z,102150
2022-10-12T09:12:04.285Z,102150
2022-10-12T09:13:08.403Z,102150
2022-10-12T09:14:00.137Z,102150
2022-10-12T09:15:01.547Z,102150
2022-10-12T09:16:03.143Z,102150
2022-10-12T09:17:01.581Z,102140
2022-10-12T09:18:01.347Z,102140
2022-10-12T09:19:03.626Z,102150
2022-10-12T09:20:03.126Z,102150
2022-10-12T09:21:01.528Z,102150
2022-10-12T09:22:01.533Z,102150
2022-10-12T09:23:03.943Z,102150
2022-10-12T09:24:02.657Z,102150
2022-10-12T09:25:01.092Z,102140
2022-10-12T09:26:03.617Z,102140
2022-10-12T09:27:04.954Z,102150
2022-10-12T09:28:10.141Z,102150
2022-10-12T09:29:00.724Z,102140
2022-10-12T09:30:01.561Z,102140
2022-10-12T09:31:10.086Z,102150
2022-10-12T09:32:07.536Z,102150
2022-10-12T09:33:07.847Z,102150
2022-10-12T09:34:03.015Z,102150
2022-10-12T09:35:00.453Z,102150
2022-10-12T09:36:00.157Z,102150
2022-10-12T09:37:02.342Z,102150
2022-10-12T09:38:00.241Z,102150
2022-10-12T09:39:02.317Z,102150
2022-10-12T09:40:00.437Z,102150
2022-10-12T09:41:00.175Z,102150
2022-10-12T09:42:00.239Z,102150
2022-10-12T09:43:01.253Z,102150
2022-10-12T09:44:01.437Z,102150
2022-10-12T09:45:01.978Z,102150
2022-10-12T09:46:02.955Z,102150
2022-10-12T09:47:02.569Z,102150
2022-10-12T09:48:07.537Z,102150
2022-10-12T09:49:00.415Z,102150
2022-10-12T09:50:03.028Z,102150
2022-10-12T09:51:01.574Z,102140
2022-10-12T09:52:01.128Z,102140
2022-10-12T09:53:00.222Z,102140
2022-10-12T09:54:01.592Z,102140
2022-10-12T09:55:04.812Z,102140
2022-10-12T09:56:04.938Z,102140
2022-10-12T09:57:01.420Z,102140
2022-10-12T09:58:00.147Z,102140
2022-10-12T09:59:01.363Z,102140
2022-10-12T10:00:00.882Z,102140
2022-10-12T10:01:10.083Z,102140
2022-10-12T10:02:01.213Z,102140
2022-10-12T10:03:01.131Z,102140
2022-10-12T10:04:09.952Z,102140
2022-10-12T10:05:10.094Z,102140
2022-10-12T10:06:02.556Z,102140
2022-10-12T10:07:10.084Z,102140
2022-10-12T10:08:10.090Z,102140
2022-10-12T10:09:00.159Z,102140
2022-10-12T10:10:03.434Z,102140
2022-10-12T10:11:00.733Z,102140
2022-10-12T10:12:10.084Z,102140
2022-10-12T10:13:00.457Z,102130
2022-10-12T10:14:00.448Z,102130
2022-10-12T10:15:00.242Z,102130
2022-10-12T10:16:02.052Z,102130
2022-10-12T10:17:00.160Z,102130
2022-10-12T10:18:01.878Z,102130
2022-10-12T10:19:00.302Z,102130
2022-10-12T10:20:02.197Z,102130
2022-10-12T10:21:01.630Z,102120
2022-10-12T10:22:04.518Z,102120
2022-10-12T10:23:02.378Z,102120
2022-10-12T10:24:01.575Z,102120
2022-10-12T10:25:00.950Z,102120
2022-10-12T10:26:03.453Z,102120
2022-10-12T10:27:02.110Z,102110
2022-10-12T10:28:10.141Z,102110
2022-10-12T10:29:10.088Z,102100
2022-10-12T10:30:25.465Z,102100
2022-10-12T10:31:01.552Z,102100
2022-10-12T10:32:10.088Z,102100
2022-10-12T10:33:10.098Z,102100
2022-10-12T10:34:10.092Z,102100
2022-10-12T10:35:10.096Z,102100
2022-10-12T10:36:10.094Z,102100
2022-10-12T10:37:00.191Z,102110
2022-10-12T10:38:00.158Z,102110
2022-10-12T10:39:01.740Z,102110
2022-10-12T10:40:00.729Z,102110
2022-10-12T10:41:01.880Z,102110
2022-10-12T10:42:09.002Z,102110
2022-10-12T10:43:02.790Z,102110
2022-10-12T10:44:00.611Z,102110
2022-10-12T10:45:01.466Z,102110
2022-10-12T10:46:01.630Z,102110
2022-10-12T10:47:06.711Z,102110
2022-10-12T10:48:08.389Z,102110
2022-10-12T10:49:01.396Z,102120
2022-10-12T10:50:01.467Z,102120
2022-10-12T10:51:01.902Z,102110
2022-10-12T10:52:01.075Z,102110
2022-10-12T10:53:01.789Z,102110
2022-10-12T10:54:10.094Z,102110
2022-10-12T10:55:07.525Z,102110
2022-10-12T10:56:10.085Z,102110
2022-10-12T10:57:02.336Z,102110
2022-10-12T10:58:02.475Z,102110
2022-10-12T10:59:09.639Z,102110
2022-10-12T11:00:26.359Z,102110
2022-10-12T11:01:04.869Z,102110
2022-10-12T11:02:10.155Z,102110
2022-10-12T11:03:04.979Z,102110
2022-10-12T11:04:03.320Z,102110
2022-10-12T11:05:06.818Z,102110
2022-10-12T11:06:10.086Z,102110
2022-10-12T11:07:04.029Z,102100
2022-10-12T11:08:03.768Z,102100
2022-10-12T11:09:03.512Z,102110
2022-10-12T11:10:02.639Z,102110
2022-10-12T11:11:03.329Z,102100
2022-10-12T11:12:00.150Z,102100
2022-10-12T11:13:05.188Z,102100
2022-10-12T11:14:04.083Z,102100
2022-10-12T11:15:05.505Z,102090
2022-10-12T11:16:01.148Z,102090
2022-10-12T11:17:02.981Z,102090
2022-10-12T11:18:06.751Z,102090
2022-10-12T11:19:05.468Z,102090
2022-10-12T11:20:10.102Z,102090
2022-10-12T11:21:03.050Z,102080
2022-10-12T11:22:03.554Z,102080
2022-10-12T11:23:03.400Z,102080
2022-10-12T11:24:07.605Z,102080
2022-10-12T11:25:06.186Z,102070
2022-10-12T11:26:05.440Z,102070
2022-10-12T11:27:03.017Z,102070
2022-10-12T11:28:00.211Z,102070
2022-10-12T11:29:00.450Z,102070
2022-10-12T11:31:00.648Z,102060
2022-10-12T11:32:10.088Z,102060
2022-10-12T11:33:02.392Z,102060
2022-10-12T11:34:00.571Z,102060
2022-10-12T11:35:01.317Z,102060
2022-10-12T11:36:00.635Z,102060
2022-10-12T11:37:18.700Z,102050
2022-10-12T11:38:02.124Z,102050
2022-10-12T11:39:06.714Z,102040
2022-10-12T11:40:01.424Z,102040
2022-10-12T11:41:33.932Z,102040
2022-10-12T11:42:20.997Z,102040
2022-10-12T11:43:06.572Z,102030
2022-10-12T11:44:06.288Z,102030
2022-10-12T11:45:04.330Z,102030
2022-10-12T11:46:01.273Z,102030
2022-10-12T11:47:03.471Z,102020
2022-10-12T11:48:03.826Z,102020
2022-10-12T11:49:01.148Z,102020
2022-10-12T11:50:10.102Z,102020
2022-10-12T11:51:04.115Z,102020
2022-10-12T11:52:04.344Z,102020
2022-10-12T11:53:01.101Z,102010
2022-10-12T11:54:10.105Z,102010
2022-10-12T11:55:10.093Z,102010
2022-10-12T11:56:04.533Z,102010
2022-10-12T11:57:04.097Z,102010
2022-10-12T11:58:08.768Z,102010
2022-10-12T11:59:03.027Z,102000
2022-10-12T12:00:02.301Z,102000
2022-10-12T12:01:10.084Z,102000
2022-10-12T12:02:04.954Z,102000
2022-10-12T12:03:10.149Z,102000
2022-10-12T12:04:12.359Z,102000
2022-10-12T12:05:01.137Z,102000
2022-10-12T12:06:10.087Z,102000
2022-10-12T12:07:01.145Z,102000
2022-10-12T12:08:00.178Z,102000
2022-10-12T12:09:00.141Z,102000
2022-10-12T12:10:00.160Z,102000
2022-10-12T12:11:02.785Z,102000
2022-10-12T12:12:10.090Z,102000
2022-10-12T12:13:10.091Z,102000
2022-10-12T12:15:01.359Z,101990
2022-10-12T12:16:00.131Z,101990
2022-10-12T12:17:10.088Z,102000
2022-10-12T12:18:08.580Z,102000
2022-10-12T12:24:00.210Z,102010
2022-10-12T12:27:00.205Z,102000
2022-10-12T12:28:10.207Z,102010
2022-10-12T12:29:09.244Z,102010
2022-10-12T13:24:03.981Z,101950
2022-10-12T13:25:03.567Z,101940
2022-10-12T13:26:02.005Z,101940
2022-10-12T13:27:10.079Z,101950
2022-10-12T13:28:02.831Z,101950
2022-10-12T13:29:01.546Z,101950
2022-10-12T13:30:10.096Z,101950
2022-10-12T13:31:03.303Z,101940